createdAt,value
2023-08-03T00:01:10.741Z,1.40
2023-08-03T00:03:38.964Z,1.50
2023-08-03T00:06:07.147Z,1.20
2023-08-03T00:08:35.142Z,1.10
2023-08-03T00:11:03.414Z,1.20
2023-08-03T00:13:31.336Z,1.40
2023-08-03T00:15:59.658Z,1.10
2023-08-03T00:18:27.598Z,1.30
2023-08-03T00:20:55.553Z,1.20
2023-08-03T00:23:23.566Z,1.20
2023-08-03T00:25:51.494Z,1.40
2023-08-03T00:28:22.351Z,1.30
2023-08-03T00:30:50.433Z,1.30
2023-08-03T00:33:18.464Z,1.10
2023-08-03T00:35:46.445Z,1.40
2023-08-03T00:38:14.537Z,1.20
2023-08-03T00:40:42.814Z,1.00
2023-08-03T00:43:10.926Z,1.30
2023-08-03T00:45:38.966Z,0.90
2023-08-03T00:48:07.024Z,1.10
2023-08-03T00:50:35.069Z,1.00
2023-08-03T00:53:02.995Z,1.20
2023-08-03T00:55:30.941Z,1.20
2023-08-03T00:57:59.963Z,0.90
2023-08-03T01:00:28.063Z,1.00
2023-08-03T01:02:56.171Z,1.20
2023-08-03T01:05:27.095Z,1.00
2023-08-03T01:07:56.359Z,0.90
2023-08-03T01:10:24.838Z,0.80
2023-08-03T01:12:52.961Z,1.20
2023-08-03T01:15:20.986Z,1.10
2023-08-03T01:17:49.002Z,1.10
2023-08-03T01:20:19.824Z,1.40
2023-08-03T01:22:48.467Z,0.90
2023-08-03T01:25:16.648Z,1.10
2023-08-03T01:27:48.543Z,1.00
2023-08-03T01:30:16.540Z,0.80
2023-08-03T01:32:44.588Z,1.00
2023-08-03T01:35:13.845Z,1.10
2023-08-03T01:37:41.929Z,1.10
2023-08-03T01:40:13.561Z,1.10
2023-08-03T01:42:41.585Z,1.00
2023-08-03T01:45:10.101Z,1.00
2023-08-03T01:47:38.326Z,1.20
2023-08-03T01:50:06.787Z,0.90
2023-08-03T01:52:36.424Z,1.00
2023-08-03T01:55:04.764Z,0.90
2023-08-03T01:57:33.242Z,1.10
2023-08-03T02:00:01.906Z,1.20
2023-08-03T02:02:29.937Z,0.90
2023-08-03T02:04:58.004Z,1.20
2023-08-03T02:07:56.642Z,1.00
2023-08-03T02:10:25.859Z,1.30
2023-08-03T02:12:53.989Z,1.10
2023-08-03T02:15:22.447Z,1.10
2023-08-03T02:17:50.666Z,1.10
2023-08-03T02:20:19.294Z,1.30
2023-08-03T02:22:47.329Z,1.30
2023-08-03T02:25:17.001Z,1.10
2023-08-03T02:27:45.122Z,1.20
2023-08-03T02:30:13.089Z,1.00
2023-08-03T02:32:41.588Z,1.20
2023-08-03T02:35:10.199Z,0.90
2023-08-03T02:37:38.781Z,1.10
2023-08-03T02:40:10.132Z,1.30
2023-08-03T02:42:38.763Z,1.00
2023-08-03T02:45:08.206Z,1.10
2023-08-03T02:47:36.286Z,1.00
2023-08-03T02:50:05.488Z,1.10
2023-08-03T02:52:33.401Z,0.90
2023-08-03T02:55:01.434Z,1.30
2023-08-03T02:57:29.375Z,1.10
2023-08-03T02:59:57.375Z,1.10
2023-08-03T03:02:25.613Z,1.00
2023-08-03T03:04:54.459Z,1.00
2023-08-03T03:07:24.501Z,1.00
2023-08-03T03:09:53.026Z,1.10
2023-08-03T03:12:21.249Z,1.30
2023-08-03T03:14:49.436Z,1.00
2023-08-03T03:17:17.407Z,0.90
2023-08-03T03:19:45.869Z,1.10
2023-08-03T03:22:14.933Z,0.90
2023-08-03T03:24:43.256Z,1.40
2023-08-03T03:27:11.218Z,1.10
2023-08-03T03:29:44.526Z,1.00
2023-08-03T03:32:12.778Z,1.40
2023-08-03T03:34:40.754Z,1.30
2023-08-03T03:37:09.727Z,1.10
2023-08-03T03:39:39.189Z,1.10
2023-08-03T03:42:07.565Z,1.30
2023-08-03T03:44:36.175Z,1.60
2023-08-03T03:47:04.855Z,1.30
2023-08-03T03:49:34.234Z,1.00
2023-08-03T03:52:03.897Z,1.60
2023-08-03T03:54:32.621Z,1.00
2023-08-03T03:57:02.014Z,1.30
2023-08-03T03:59:31.474Z,1.40
2023-08-03T04:02:00.687Z,1.90
2023-08-03T04:04:32.217Z,1.40
2023-08-03T04:07:00.813Z,1.60
2023-08-03T04:09:30.081Z,1.70
2023-08-03T04:11:58.985Z,1.40
2023-08-03T04:14:28.398Z,1.30
2023-08-03T04:16:56.536Z,1.70
2023-08-03T04:19:26.956Z,1.40
2023-08-03T04:21:55.092Z,1.50
2023-08-03T04:24:23.061Z,1.30
2023-08-03T04:26:51.618Z,1.40
2023-08-03T04:29:23.241Z,1.50
2023-08-03T04:31:52.410Z,1.60
2023-08-03T04:34:20.817Z,1.40
2023-08-03T04:36:49.389Z,1.80
2023-08-03T04:39:17.494Z,1.30
2023-08-03T04:41:46.161Z,1.20
2023-08-03T04:44:15.795Z,1.50
2023-08-03T04:46:43.745Z,1.30
2023-08-03T04:49:13.706Z,1.60
2023-08-03T04:54:19.742Z,1.30
2023-08-03T04:56:48.129Z,1.20
2023-08-03T04:59:31.358Z,1.50
2023-08-03T05:02:00.072Z,1.40
2023-08-03T05:04:28.905Z,1.80
2023-08-03T05:06:57.230Z,1.70
2023-08-03T05:09:25.320Z,1.50
2023-08-03T05:11:53.381Z,1.30
2023-08-03T05:14:21.578Z,1.40
2023-08-03T05:16:49.574Z,1.90
2023-08-03T05:19:17.589Z,1.50
2023-08-03T05:21:45.742Z,1.60
2023-08-03T05:24:13.892Z,1.60
2023-08-03T05:26:41.901Z,1.60
2023-08-03T05:29:10.181Z,1.40
2023-08-03T05:31:38.703Z,1.40
2023-08-03T05:34:06.759Z,1.60
2023-08-03T05:36:35.084Z,1.50
2023-08-03T05:39:03.112Z,1.40
2023-08-03T05:41:31.177Z,1.80
2023-08-03T05:43:59.134Z,1.20
2023-08-03T05:46:33.482Z,1.40
2023-08-03T05:49:01.982Z,1.70
2023-08-03T05:51:30.096Z,1.60
2023-08-03T05:53:58.284Z,1.40
2023-08-03T05:56:26.328Z,1.70
2023-08-03T05:58:54.546Z,1.70
2023-08-03T06:01:24.290Z,1.60
2023-08-03T06:03:54.584Z,1.30
2023-08-03T06:06:23.718Z,1.50
2023-08-03T06:08:54.843Z,1.30
2023-08-03T06:13:54.315Z,1.60
2023-08-03T06:16:27.416Z,1.50
2023-08-03T06:19:00.164Z,1.80
2023-08-03T06:21:29.167Z,1.50
2023-08-03T06:23:59.476Z,2.30
2023-08-03T06:26:32.403Z,1.60
2023-08-03T06:29:02.800Z,1.60
2023-08-03T06:31:33.895Z,1.70
2023-08-03T06:34:03.490Z,1.90
2023-08-03T06:36:31.409Z,1.60
2023-08-03T06:38:59.580Z,1.60
2023-08-03T06:41:28.405Z,1.70
2023-08-03T06:43:57.331Z,1.60
2023-08-03T06:46:28.470Z,1.90
2023-08-03T06:48:56.684Z,2.10
2023-08-03T06:51:24.805Z,1.90
2023-08-03T06:53:53.156Z,2.00
2023-08-03T06:56:21.040Z,1.80
2023-08-03T06:58:49.048Z,1.90
2023-08-03T07:01:17.117Z,2.00
2023-08-03T07:03:45.416Z,1.80
2023-08-03T07:06:13.759Z,1.80
2023-08-03T07:08:41.698Z,2.30
2023-08-03T07:11:09.775Z,2.20
2023-08-03T07:13:37.835Z,2.30
2023-08-03T07:16:10.115Z,1.80
2023-08-03T07:18:38.439Z,2.30
2023-08-03T07:21:07.222Z,2.20
2023-08-03T07:23:35.730Z,1.90
2023-08-03T07:26:03.899Z,1.90
2023-08-03T07:28:31.892Z,1.90
2023-08-03T07:30:59.945Z,1.50
2023-08-03T07:33:28.055Z,1.70
2023-08-03T07:35:56.008Z,2.10
2023-08-03T07:38:24.071Z,1.90
2023-08-03T07:40:52.031Z,1.80
2023-08-03T07:43:20.088Z,1.50
2023-08-03T07:45:51.529Z,1.50
2023-08-03T07:48:19.792Z,2.00
2023-08-03T07:50:47.809Z,1.70
2023-08-03T07:53:15.777Z,1.50
2023-08-03T07:55:43.741Z,1.60
2023-08-03T07:58:14.393Z,2.10
2023-08-03T08:00:42.383Z,1.90
2023-08-03T08:03:10.448Z,1.80
2023-08-03T08:05:38.478Z,1.80
2023-08-03T08:08:06.473Z,1.70
2023-08-03T08:10:34.458Z,1.70
2023-08-03T08:13:02.401Z,1.60
2023-08-03T08:15:30.664Z,1.80
2023-08-03T08:18:58.970Z,1.60
2023-08-03T08:21:27.104Z,1.40
2023-08-03T08:23:55.058Z,1.40
2023-08-03T08:26:23.120Z,2.00
2023-08-03T08:29:03.256Z,2.00
2023-08-03T08:31:52.908Z,1.90
2023-08-03T08:34:21.572Z,1.50
2023-08-03T08:36:52.816Z,1.40
2023-08-03T08:39:21.491Z,1.70
2023-08-03T08:41:50.134Z,1.50
2023-08-03T08:44:18.179Z,1.30
2023-08-03T08:46:46.349Z,1.10
2023-08-03T08:54:20.246Z,1.60
2023-08-03T09:01:52.906Z,1.40
2023-08-03T09:04:36.182Z,1.60
2023-08-03T09:07:05.405Z,1.40
2023-08-03T09:09:35.535Z,2.20
2023-08-03T09:12:04.260Z,2.20
2023-08-03T09:14:33.010Z,1.90
2023-08-03T09:17:21.379Z,1.70
2023-08-03T09:25:01.057Z,1.70
2023-08-03T09:32:50.500Z,2.10
2023-08-03T09:35:27.134Z,1.70
2023-08-03T09:37:57.837Z,1.90
2023-08-03T09:40:26.141Z,1.50
2023-08-03T09:42:55.810Z,1.70
2023-08-03T09:47:59.550Z,1.40
2023-08-03T09:50:31.588Z,1.70
2023-08-03T09:55:47.543Z,1.80
2023-08-03T09:58:17.934Z,1.70
2023-08-03T10:00:47.457Z,1.70
2023-08-03T10:03:19.901Z,1.30
2023-08-03T10:05:57.447Z,1.40
2023-08-03T10:08:47.950Z,1.00
2023-08-03T10:11:16.294Z,1.20
2023-08-03T10:13:48.840Z,1.70
2023-08-03T10:16:18.410Z,1.40
2023-08-03T10:18:59.025Z,1.40
2023-08-03T10:21:29.745Z,1.30
2023-08-03T10:24:15.900Z,1.50
2023-08-03T10:26:44.441Z,1.30
2023-08-03T10:29:12.823Z,1.60
2023-08-03T10:31:55.187Z,1.50
2023-08-03T10:34:28.009Z,1.50
2023-08-03T10:36:58.629Z,1.60
2023-08-03T10:39:46.816Z,1.40
2023-08-03T10:42:44.923Z,1.10
2023-08-03T10:45:21.639Z,1.30
2023-08-03T10:47:50.527Z,1.30
2023-08-03T10:50:18.959Z,1.20
2023-08-03T10:52:47.132Z,1.70
2023-08-03T10:55:23.493Z,1.50
2023-08-03T10:57:51.726Z,1.20
2023-08-03T11:00:20.602Z,1.40
2023-08-03T11:02:48.872Z,1.50
2023-08-03T11:05:16.883Z,1.70
2023-08-03T11:07:47.142Z,1.60
2023-08-03T11:10:17.053Z,1.70
2023-08-03T11:12:46.339Z,1.40
2023-08-03T11:15:18.207Z,1.70
2023-08-03T11:17:51.083Z,1.60
2023-08-03T11:20:21.171Z,1.70
2023-08-03T11:22:50.173Z,2.20
2023-08-03T11:25:21.101Z,1.80
2023-08-03T11:27:49.281Z,1.80
2023-08-03T11:30:21.121Z,2.00
2023-08-03T11:32:49.279Z,1.70
2023-08-03T11:35:17.343Z,1.60
2023-08-03T11:37:46.336Z,1.50
2023-08-03T11:40:15.867Z,1.40
2023-08-03T11:42:45.906Z,1.30
2023-08-03T11:45:14.425Z,1.00
2023-08-03T11:47:44.929Z,1.10
2023-08-03T11:50:14.839Z,1.90
2023-08-03T11:52:42.973Z,1.40
2023-08-03T11:55:29.614Z,1.30
2023-08-03T11:58:10.191Z,1.50
2023-08-03T12:00:39.202Z,1.30
2023-08-03T12:03:07.827Z,1.40
2023-08-03T12:06:10.060Z,1.60
2023-08-03T12:08:45.951Z,1.30
2023-08-03T12:11:24.524Z,1.70
2023-08-03T12:13:53.618Z,1.30
2023-08-03T12:16:58.820Z,2.00
2023-08-03T12:19:34.080Z,1.30
2023-08-03T12:22:04.606Z,1.30
2023-08-03T12:24:33.123Z,1.40
2023-08-03T12:27:09.366Z,1.20
2023-08-03T12:32:13.034Z,1.30
2023-08-03T12:34:41.114Z,1.30
2023-08-03T12:37:09.231Z,1.40
2023-08-03T12:39:37.357Z,1.30
2023-08-03T12:42:05.629Z,1.90
2023-08-03T12:44:33.573Z,1.30
2023-08-03T12:47:01.900Z,1.60
2023-08-03T12:49:30.096Z,1.30
2023-08-03T12:51:58.083Z,1.70
2023-08-03T12:54:28.472Z,1.50
2023-08-03T12:56:57.466Z,1.70
2023-08-03T12:59:25.434Z,1.80
2023-08-03T13:01:55.844Z,1.50
2023-08-03T13:04:24.084Z,1.50
2023-08-03T13:06:52.011Z,1.80
2023-08-03T13:09:19.996Z,1.70
2023-08-03T13:11:49.177Z,1.80
2023-08-03T13:14:17.778Z,2.10
2023-08-03T13:16:46.330Z,2.40
2023-08-03T13:19:15.347Z,1.80
2023-08-03T13:21:44.444Z,1.80
2023-08-03T13:24:12.732Z,1.60
2023-08-03T13:26:40.653Z,1.50
2023-08-03T13:29:08.717Z,1.90
2023-08-03T13:31:36.785Z,1.80
2023-08-03T13:34:05.282Z,1.40
2023-08-03T13:36:33.275Z,2.20
2023-08-03T13:39:01.197Z,2.00
2023-08-03T13:41:29.204Z,1.50
2023-08-03T13:43:57.394Z,2.20
2023-08-03T13:46:25.387Z,2.40
2023-08-03T13:48:55.160Z,2.10
2023-08-03T13:51:23.292Z,2.30
2023-08-03T13:53:55.983Z,1.90
2023-08-03T13:58:56.408Z,2.00
2023-08-03T14:01:36.638Z,1.90
2023-08-03T14:04:06.543Z,1.80
2023-08-03T14:07:10.261Z,1.90
2023-08-03T14:09:24.419Z,2.10
2023-08-03T14:16:55.867Z,2.70
2023-08-03T14:19:25.588Z,2.40
2023-08-03T14:21:59.159Z,2.10
2023-08-03T14:24:28.090Z,1.60
2023-08-03T14:26:56.195Z,2.30
2023-08-03T14:29:24.347Z,1.90
2023-08-03T14:31:52.360Z,1.80
2023-08-03T14:34:20.313Z,2.00
2023-08-03T14:36:48.476Z,2.10
2023-08-03T14:39:17.676Z,2.30
2023-08-03T14:41:49.603Z,2.10
2023-08-03T14:44:21.381Z,2.90
2023-08-03T14:47:00.854Z,2.20
2023-08-03T14:49:29.419Z,2.40
2023-08-03T14:54:29.482Z,2.60
2023-08-03T14:56:57.637Z,2.40
2023-08-03T14:59:25.662Z,3.00
2023-08-03T15:01:53.749Z,2.90
2023-08-03T15:04:21.886Z,3.00
2023-08-03T15:06:52.388Z,2.90
2023-08-03T15:09:20.935Z,2.90
2023-08-03T15:11:50.052Z,2.70
2023-08-03T15:14:24.209Z,2.70
2023-08-03T15:17:00.555Z,2.60
2023-08-03T15:19:41.769Z,3.00
2023-08-03T15:22:11.412Z,2.90
2023-08-03T15:24:40.858Z,2.10
2023-08-03T15:27:22.879Z,2.40
2023-08-03T15:29:56.065Z,2.40
2023-08-03T15:35:02.090Z,2.50
2023-08-03T15:37:31.832Z,2.20
2023-08-03T15:40:01.688Z,2.80
2023-08-03T15:42:35.815Z,2.20
2023-08-03T15:45:09.360Z,1.80
2023-08-03T15:50:17.635Z,2.50
2023-08-03T15:53:07.611Z,2.40
2023-08-03T15:58:09.283Z,1.90
2023-08-03T16:00:37.595Z,2.60
2023-08-03T16:03:05.737Z,2.40
2023-08-03T16:05:35.609Z,2.10
2023-08-03T16:08:04.238Z,2.60
2023-08-03T16:10:34.834Z,1.90
2023-08-03T16:13:05.986Z,2.20
2023-08-03T16:15:36.693Z,1.90
2023-08-03T16:18:06.386Z,1.80
2023-08-03T16:20:37.118Z,1.90
2023-08-03T16:23:06.444Z,1.80
2023-08-03T16:25:34.816Z,2.00
2023-08-03T16:28:02.995Z,2.00
2023-08-03T16:30:34.323Z,1.60
2023-08-03T16:33:02.571Z,1.90
2023-08-03T16:35:40.312Z,2.10
2023-08-03T16:38:10.313Z,2.10
2023-08-03T16:40:39.697Z,1.60
2023-08-03T16:43:09.355Z,2.30
2023-08-03T16:45:38.565Z,1.80
2023-08-03T16:48:08.548Z,2.00
2023-08-03T16:50:37.561Z,1.90
2023-08-03T16:53:06.163Z,2.00
2023-08-03T16:55:36.978Z,1.70
2023-08-03T16:58:05.364Z,2.00
2023-08-03T17:00:38.855Z,1.80
2023-08-03T17:03:16.181Z,2.10
2023-08-03T17:05:55.735Z,1.80
2023-08-03T17:08:24.883Z,1.90
2023-08-03T17:10:53.082Z,1.90
2023-08-03T17:13:21.122Z,1.60
2023-08-03T17:15:51.556Z,1.70
2023-08-03T17:18:20.289Z,1.40
2023-08-03T17:20:48.612Z,1.60
2023-08-03T17:23:16.965Z,1.60
2023-08-03T17:25:48.563Z,2.00
2023-08-03T17:28:16.874Z,2.30
2023-08-03T17:30:45.303Z,2.10
2023-08-03T17:33:13.765Z,1.50
2023-08-03T17:35:42.695Z,1.80
2023-08-03T17:38:13.860Z,1.80
2023-08-03T17:40:42.395Z,1.80
2023-08-03T17:43:10.534Z,1.50
2023-08-03T17:45:39.648Z,1.90
2023-08-03T17:48:10.634Z,1.80
2023-08-03T17:50:38.800Z,2.00
2023-08-03T17:53:09.260Z,1.70
2023-08-03T17:55:37.467Z,2.10
2023-08-03T17:58:08.320Z,2.00
2023-08-03T18:00:36.511Z,2.30
2023-08-03T18:03:04.674Z,2.50
2023-08-03T18:05:38.507Z,2.80
2023-08-03T18:08:06.507Z,2.60
2023-08-03T18:10:34.544Z,2.50
2023-08-03T18:13:03.148Z,2.40
2023-08-03T18:15:35.449Z,2.30
2023-08-03T18:18:03.918Z,1.80
2023-08-03T18:20:39.932Z,2.30
2023-08-03T18:23:07.972Z,2.00
2023-08-03T18:25:36.162Z,2.00
2023-08-03T18:28:04.540Z,2.00
2023-08-03T18:30:34.104Z,1.90
2023-08-03T18:33:03.129Z,1.90
2023-08-03T18:35:32.401Z,1.90
2023-08-03T18:38:01.558Z,2.00
2023-08-03T18:40:30.817Z,1.70
2023-08-03T18:42:59.998Z,2.10
2023-08-03T18:45:28.904Z,1.70
2023-08-03T18:47:57.656Z,1.70
2023-08-03T18:50:27.185Z,1.70
2023-08-03T18:52:57.206Z,1.70
2023-08-03T18:55:25.433Z,1.60
2023-08-03T18:57:54.337Z,1.90
2023-08-03T19:00:24.818Z,1.50
2023-08-03T19:02:55.297Z,1.60
2023-08-03T19:05:25.011Z,1.70
2023-08-03T19:07:55.415Z,1.60
2023-08-03T19:10:26.414Z,1.30
2023-08-03T19:12:56.701Z,1.50
2023-08-03T19:15:31.934Z,1.60
2023-08-03T19:18:04.802Z,1.50
2023-08-03T19:20:34.123Z,1.50
2023-08-03T19:23:04.851Z,1.40
2023-08-03T19:25:34.632Z,1.40
2023-08-03T19:28:03.963Z,1.50
2023-08-03T19:30:35.850Z,1.50
2023-08-03T19:33:07.473Z,1.00
2023-08-03T19:35:45.058Z,1.60
2023-08-03T19:38:15.050Z,1.70
2023-08-03T19:40:45.137Z,1.50
2023-08-03T19:43:13.351Z,1.50
2023-08-03T19:45:41.598Z,1.20
2023-08-03T19:48:11.102Z,1.90
2023-08-03T19:55:45.419Z,1.60
2023-08-03T19:58:15.080Z,1.30
2023-08-03T20:08:25.578Z,1.30
2023-08-03T20:10:55.775Z,1.60
2023-08-03T20:13:25.434Z,1.40
2023-08-03T20:15:55.703Z,1.40
2023-08-03T20:18:24.484Z,1.60
2023-08-03T20:20:55.760Z,1.60
2023-08-03T20:23:27.847Z,1.20
2023-08-03T20:26:03.537Z,1.40
2023-08-03T20:28:40.238Z,1.70
2023-08-03T20:31:09.621Z,1.10
2023-08-03T20:33:42.889Z,1.20
2023-08-03T20:36:11.782Z,1.20
2023-08-03T20:38:40.924Z,1.20
2023-08-03T20:41:11.461Z,1.50
2023-08-03T20:49:23.782Z,1.20
2023-08-03T20:51:51.951Z,1.10
2023-08-03T20:56:52.075Z,1.40
2023-08-03T20:59:22.862Z,1.10
2023-08-03T21:01:53.115Z,1.10
2023-08-03T21:04:26.694Z,1.10
2023-08-03T21:06:55.209Z,1.00
2023-08-03T21:09:23.602Z,1.10
2023-08-03T21:11:56.531Z,1.00
2023-08-03T21:14:25.040Z,1.20
2023-08-03T21:16:53.055Z,1.10
2023-08-03T21:19:23.926Z,0.90
2023-08-03T21:21:58.427Z,1.10
2023-08-03T21:24:29.882Z,1.10
2023-08-03T21:26:58.036Z,1.30
2023-08-03T21:29:26.958Z,1.10
2023-08-03T21:33:56.553Z,1.10
2023-08-03T21:36:24.947Z,0.90
2023-08-03T21:38:53.080Z,1.30
2023-08-03T21:41:28.548Z,1.00
2023-08-03T21:43:59.245Z,1.00
2023-08-03T21:46:30.427Z,1.40
2023-08-03T21:49:14.827Z,1.50
2023-08-03T21:51:54.015Z,0.90
2023-08-03T21:54:24.186Z,1.00
2023-08-03T21:56:52.261Z,0.80
2023-08-03T21:59:22.686Z,1.50
2023-08-03T22:01:53.787Z,1.10
2023-08-03T22:04:29.469Z,0.90
2023-08-03T22:06:57.874Z,1.20
2023-08-03T22:09:26.035Z,0.90
2023-08-03T22:11:54.081Z,1.40
2023-08-03T22:14:22.042Z,1.10
2023-08-03T22:16:50.089Z,1.10
2023-08-03T22:19:18.090Z,1.30
2023-08-03T22:21:51.781Z,1.10
2023-08-03T22:24:20.075Z,1.30
2023-08-03T22:26:48.250Z,1.10
2023-08-03T22:29:16.218Z,1.10
2023-08-03T22:31:44.370Z,0.90
2023-08-03T22:34:12.669Z,1.10
2023-08-03T22:36:40.635Z,1.10
2023-08-03T22:39:08.649Z,0.90
2023-08-03T22:41:36.577Z,1.00
2023-08-03T22:44:05.260Z,0.80
2023-08-03T22:46:34.003Z,1.30
2023-08-03T22:49:02.164Z,1.10
2023-08-03T22:51:30.317Z,1.20
2023-08-03T22:53:58.261Z,1.20
2023-08-03T22:56:26.241Z,1.10
2023-08-03T22:58:54.463Z,1.30
2023-08-03T23:01:24.656Z,1.10
2023-08-03T23:03:53.137Z,1.40
2023-08-03T23:06:22.613Z,1.00
2023-08-03T23:08:51.880Z,1.00
2023-08-03T23:11:20.085Z,1.00
2023-08-03T23:13:48.039Z,1.10
2023-08-03T23:16:22.109Z,0.90
2023-08-03T23:18:51.691Z,1.00
2023-08-03T23:21:19.620Z,0.90
2023-08-03T23:23:48.121Z,1.20
2023-08-03T23:26:17.160Z,1.20
2023-08-03T23:28:46.125Z,0.90
2023-08-03T23:31:14.174Z,1.30
2023-08-03T23:33:42.325Z,1.00
2023-08-03T23:36:10.559Z,1.20
2023-08-03T23:38:38.644Z,1.00
2023-08-03T23:41:06.776Z,1.10
2023-08-03T23:43:34.766Z,1.40
2023-08-03T23:46:02.889Z,1.30
2023-08-03T23:48:30.929Z,1.10
2023-08-03T23:50:58.957Z,0.90
2023-08-03T23:53:27.009Z,1.20
2023-08-03T23:55:54.939Z,0.90
2023-08-03T23:58:22.977Z,0.90
